createdAt,value
2023-01-28T00:00:36.142Z,102210.03
2023-01-28T00:03:02.483Z,102209.28
2023-01-28T00:05:29.995Z,102209.91
2023-01-28T00:07:57.856Z,102214.91
2023-01-28T00:10:24.192Z,102209.75
2023-01-28T00:12:50.941Z,102214.75
2023-01-28T00:15:17.283Z,102208.88
2023-01-28T00:17:43.679Z,102218.25
2023-01-28T00:20:11.958Z,102220.38
2023-01-28T00:22:38.285Z,102218.84
2023-01-28T00:25:05.137Z,102217.38
2023-01-28T00:27:31.485Z,102218.84
2023-01-28T00:29:57.806Z,102221.75
2023-01-28T00:32:24.139Z,102219.00
2023-01-28T00:34:52.743Z,102216.25
2023-01-28T00:37:19.194Z,102220.53
2023-01-28T00:39:45.513Z,102214.28
2023-01-28T00:42:11.879Z,102220.81
2023-01-28T00:44:38.249Z,102222.28
2023-01-28T00:47:05.162Z,102219.56
2023-01-28T00:49:31.489Z,102226.81
2023-01-28T00:51:57.840Z,102228.19
2023-01-28T00:54:24.175Z,102221.06
2023-01-28T00:56:50.503Z,102231.06
2023-01-28T00:59:16.833Z,102232.56
2023-01-28T01:01:43.779Z,102231.06
2023-01-28T01:04:10.145Z,102222.28
2023-01-28T01:06:37.278Z,102233.81
2023-01-28T01:09:06.137Z,102231.53
2023-01-28T01:11:34.091Z,102227.91
2023-01-28T01:14:00.563Z,102225.03
2023-01-28T01:16:28.567Z,102227.78
2023-01-28T01:18:54.950Z,102227.03
2023-01-28T01:21:22.092Z,102230.78
2023-01-28T01:23:48.423Z,102224.28
2023-01-28T01:26:14.761Z,102230.78
2023-01-28T01:28:41.259Z,102227.31
2023-01-28T01:31:08.900Z,102228.81
2023-01-28T01:33:35.286Z,102226.66
2023-01-28T01:36:01.684Z,102229.56
2023-01-28T01:38:28.223Z,102230.19
2023-01-28T01:40:58.657Z,102233.81
2023-01-28T01:43:24.999Z,102236.53
2023-01-28T01:45:53.308Z,102231.53
2023-01-28T01:48:20.917Z,102233.53
2023-01-28T01:50:49.645Z,102237.94
2023-01-28T01:53:16.963Z,102245.03
2023-01-28T01:55:43.687Z,102246.41
2023-01-28T01:58:11.790Z,102250.78
2023-01-28T02:00:38.467Z,102246.56
2023-01-28T02:03:04.853Z,102245.78
2023-01-28T02:05:31.195Z,102249.44
2023-01-28T02:08:20.398Z,102241.56
2023-01-28T02:10:47.118Z,102250.31
2023-01-28T02:13:13.456Z,102245.19
2023-01-28T02:15:39.782Z,102248.06
2023-01-28T02:18:06.143Z,102247.31
2023-01-28T02:20:44.615Z,102237.78
2023-01-28T02:23:14.259Z,102245.78
2023-01-28T02:25:43.667Z,102247.91
2023-01-28T02:28:19.259Z,102237.78
2023-01-28T02:30:53.082Z,102237.78
2023-01-28T02:33:22.360Z,102244.28
2023-01-28T02:35:49.648Z,102241.28
2023-01-28T02:38:34.943Z,102246.28
2023-01-28T02:41:02.079Z,102247.78
2023-01-28T02:43:33.124Z,102247.91
2023-01-28T02:46:18.142Z,102256.53
2023-01-28T02:48:44.545Z,102247.91
2023-01-28T02:51:15.143Z,102247.31
2023-01-28T02:53:45.127Z,102240.81
2023-01-28T02:56:29.254Z,102246.56
2023-01-28T02:59:22.120Z,102240.81
2023-01-28T03:01:49.204Z,102248.53
2023-01-28T03:04:20.693Z,102248.53
2023-01-28T03:06:49.275Z,102247.78
2023-01-28T03:09:26.915Z,102240.53
2023-01-28T03:12:14.045Z,102239.63
2023-01-28T03:14:59.186Z,102244.63
2023-01-28T03:17:46.531Z,102244.00
2023-01-28T03:20:31.738Z,102244.75
2023-01-28T03:23:17.292Z,102244.75
2023-01-28T03:26:02.927Z,102250.66
2023-01-28T03:28:48.173Z,102239.13
2023-01-28T03:31:33.933Z,102249.28
2023-01-28T03:34:19.689Z,102242.00
2023-01-28T03:36:53.395Z,102247.63
2023-01-28T03:39:35.409Z,102252.03
2023-01-28T03:42:03.995Z,102246.28
2023-01-28T03:44:49.165Z,102250.50
2023-01-28T03:47:16.688Z,102250.50
2023-01-28T03:49:44.590Z,102246.28
2023-01-28T03:52:11.963Z,102241.28
2023-01-28T03:54:38.316Z,102250.66
2023-01-28T03:57:06.106Z,102245.03
2023-01-28T03:59:32.830Z,102255.19
2023-01-28T04:01:59.444Z,102249.28
2023-01-28T04:04:25.874Z,102245.19
2023-01-28T04:06:54.814Z,102243.81
2023-01-28T04:09:40.675Z,102243.81
2023-01-28T04:12:29.670Z,102236.53
2023-01-28T04:14:55.986Z,102253.94
2023-01-28T04:17:27.320Z,102251.06
2023-01-28T04:19:53.663Z,102249.56
2023-01-28T04:22:21.229Z,102246.69
2023-01-28T04:24:47.556Z,102250.94
2023-01-28T04:27:15.115Z,102251.53
2023-01-28T04:29:41.570Z,102246.56
2023-01-28T04:32:31.191Z,102263.03
2023-01-28T04:35:04.653Z,102255.03
2023-01-28T04:37:48.703Z,102255.78
2023-01-28T04:40:33.661Z,102254.31
2023-01-28T04:43:09.515Z,102261.56
2023-01-28T04:46:08.789Z,102253.66
2023-01-28T04:48:47.727Z,102239.28
2023-01-28T04:51:32.687Z,102250.03
2023-01-28T04:54:16.388Z,102243.69
2023-01-28T04:56:42.988Z,102243.03
2023-01-28T04:59:09.823Z,102249.56
2023-01-28T05:01:36.166Z,102244.56
2023-01-28T05:04:05.581Z,102251.06
2023-01-28T05:06:33.892Z,102259.09
2023-01-28T05:09:05.777Z,102254.09
2023-01-28T05:11:32.478Z,102261.19
2023-01-28T05:14:03.245Z,102269.84
2023-01-28T05:16:38.275Z,102274.09
2023-01-28T05:19:04.667Z,102278.34
2023-01-28T05:21:38.074Z,102271.06
2023-01-28T05:24:09.009Z,102275.34
2023-01-28T05:26:35.496Z,102275.34
2023-01-28T05:29:01.871Z,102282.59
2023-01-28T05:31:28.528Z,102276.81
2023-01-28T05:33:55.986Z,102280.31
2023-01-28T05:36:23.109Z,102273.94
2023-01-28T05:38:49.559Z,102277.56
2023-01-28T05:41:15.887Z,102272.59
2023-01-28T05:43:44.078Z,102272.72
2023-01-28T05:46:45.373Z,102269.84
2023-01-28T05:49:37.815Z,102274.09
2023-01-28T05:52:24.134Z,102265.47
2023-01-28T05:54:50.517Z,102272.59
2023-01-28T05:57:17.081Z,102277.56
2023-01-28T05:59:43.606Z,102268.19
2023-01-28T06:02:09.986Z,102268.19
2023-01-28T06:04:36.493Z,102269.56
2023-01-28T06:07:02.860Z,102271.06
2023-01-28T06:09:29.465Z,102276.81
2023-01-28T06:11:55.899Z,102269.72
2023-01-28T06:14:23.235Z,102268.34
2023-01-28T06:17:16.276Z,102270.47
2023-01-28T06:20:06.432Z,102270.59
2023-01-28T06:22:32.825Z,102277.84
2023-01-28T06:25:00.382Z,102282.88
2023-01-28T06:27:27.486Z,102282.88
2023-01-28T06:29:53.810Z,102282.88
2023-01-28T06:32:20.959Z,102285.75
2023-01-28T06:34:47.300Z,102289.97
2023-01-28T06:37:13.799Z,102284.84
2023-01-28T06:39:40.117Z,102285.59
2023-01-28T06:42:06.451Z,102288.47
2023-01-28T06:44:32.838Z,102284.09
2023-01-28T06:46:59.162Z,102290.59
2023-01-28T06:49:25.485Z,102297.09
2023-01-28T06:51:51.795Z,102288.47
2023-01-28T06:54:18.122Z,102289.97
2023-01-28T06:56:44.433Z,102290.75
2023-01-28T06:59:10.763Z,102295.88
2023-01-28T07:01:37.163Z,102290.13
2023-01-28T07:04:03.567Z,102294.38
2023-01-28T07:06:29.897Z,102305.88
2023-01-28T07:08:56.235Z,102300.88
2023-01-28T07:11:22.583Z,102303.00
2023-01-28T07:13:48.933Z,102297.84
2023-01-28T07:16:15.268Z,102297.09
2023-01-28T07:18:41.597Z,102294.22
2023-01-28T07:21:07.923Z,102302.88
2023-01-28T07:23:34.274Z,102296.38
2023-01-28T07:26:01.321Z,102297.84
2023-01-28T07:28:27.698Z,102292.84
2023-01-28T07:30:54.082Z,102302.88
2023-01-28T07:33:20.469Z,102291.34
2023-01-28T07:35:47.144Z,102301.47
2023-01-28T07:38:13.478Z,102294.38
2023-01-28T07:40:39.822Z,102300.13
2023-01-28T07:43:07.193Z,102300.88
2023-01-28T07:45:37.395Z,102300.13
2023-01-28T07:48:04.614Z,102287.09
2023-01-28T07:50:31.731Z,102286.34
2023-01-28T07:52:58.159Z,102297.09
2023-01-28T07:55:24.514Z,102305.88
2023-01-28T07:57:57.445Z,102302.88
2023-01-28T08:00:23.941Z,102297.84
2023-01-28T08:02:50.336Z,102303.00
2023-01-28T08:05:17.463Z,102304.38
2023-01-28T08:07:44.010Z,102313.78
2023-01-28T08:10:10.997Z,102320.28
2023-01-28T08:12:37.586Z,102325.44
2023-01-28T08:15:05.917Z,102318.88
2023-01-28T08:17:32.233Z,102320.41
2023-01-28T08:19:58.563Z,102321.91
2023-01-28T08:22:25.502Z,102318.56
2023-01-28T08:24:51.828Z,102331.59
2023-01-28T08:27:18.151Z,102326.56
2023-01-28T08:29:44.503Z,102338.09
2023-01-28T08:32:10.948Z,102338.72
2023-01-28T08:34:37.277Z,102339.47
2023-01-28T08:37:05.743Z,102354.59
2023-01-28T08:39:32.087Z,102343.25
2023-01-28T08:41:58.391Z,102338.25
2023-01-28T08:44:24.732Z,102351.28
2023-01-28T08:46:51.065Z,102344.00
2023-01-28T08:49:17.468Z,102338.25
2023-01-28T08:51:43.772Z,102341.13
2023-01-28T08:54:10.101Z,102346.16
2023-01-28T08:56:36.528Z,102329.34
2023-01-28T08:59:02.858Z,102344.63
2023-01-28T09:01:29.361Z,102341.28
2023-01-28T09:03:56.157Z,102349.16
2023-01-28T09:06:22.487Z,102357.81
2023-01-28T09:08:48.807Z,102361.56
2023-01-28T09:11:15.131Z,102362.06
2023-01-28T09:13:41.588Z,102367.03
2023-01-28T09:16:08.211Z,102378.56
2023-01-28T09:18:34.540Z,102374.31
2023-01-28T09:21:00.963Z,102374.16
2023-01-28T09:23:27.301Z,102381.44
2023-01-28T09:25:59.422Z,102384.31
2023-01-28T09:28:25.763Z,102381.44
2023-01-28T09:30:52.158Z,102390.06
2023-01-28T09:33:18.499Z,102391.88
2023-01-28T09:35:44.941Z,102400.44
2023-01-28T09:38:11.253Z,102397.63
2023-01-28T09:40:38.307Z,102400.81
2023-01-28T09:43:10.304Z,102403.22
2023-01-28T09:45:37.602Z,102404.66
2023-01-28T09:48:04.763Z,102392.22
2023-01-28T09:50:35.442Z,102394.59
2023-01-28T09:53:11.018Z,102396.44
2023-01-28T09:55:40.876Z,102395.28
2023-01-28T09:58:15.002Z,102402.19
2023-01-28T10:00:50.649Z,102388.97
2023-01-28T10:03:23.153Z,102397.13
2023-01-28T10:06:02.507Z,102397.38
2023-01-28T10:08:36.430Z,102400.19
2023-01-28T10:11:10.860Z,102391.22
2023-01-28T10:13:43.437Z,102391.94
2023-01-28T10:16:12.742Z,102395.81
2023-01-28T10:18:44.044Z,102388.84
2023-01-28T10:21:29.108Z,102397.94
2023-01-28T10:23:58.438Z,102384.31
2023-01-28T10:26:26.764Z,102393.31
2023-01-28T10:29:00.711Z,102389.06
2023-01-28T10:31:30.298Z,102392.34
2023-01-28T10:33:56.700Z,102382.59
2023-01-28T10:36:23.012Z,102381.06
2023-01-28T10:38:49.362Z,102378.75
2023-01-28T10:41:17.118Z,102379.16
2023-01-28T10:43:43.697Z,102375.94
2023-01-28T10:46:14.392Z,102369.97
2023-01-28T10:48:45.114Z,102383.38
2023-01-28T10:51:11.443Z,102368.09
2023-01-28T10:53:37.764Z,102365.50
2023-01-28T10:56:04.908Z,102367.91
2023-01-28T10:58:31.635Z,102372.28
2023-01-28T11:00:59.603Z,102378.34
2023-01-28T11:03:30.732Z,102367.72
2023-01-28T11:05:57.155Z,102369.84
2023-01-28T11:08:24.458Z,102384.38
2023-01-28T11:10:50.785Z,102374.38
2023-01-28T11:13:18.727Z,102379.38
2023-01-28T11:15:48.826Z,102377.38
2023-01-28T11:18:22.670Z,102373.16
2023-01-28T11:20:49.691Z,102368.91
2023-01-28T11:23:19.840Z,102359.66
2023-01-28T11:25:46.374Z,102370.44
2023-01-28T11:28:17.431Z,102364.78
2023-01-28T11:30:43.791Z,102360.72
2023-01-28T11:33:39.502Z,102355.56
2023-01-28T11:36:15.834Z,102363.59
2023-01-28T11:38:49.010Z,102363.88
2023-01-28T11:41:15.331Z,102356.13
2023-01-28T11:43:41.658Z,102348.25
2023-01-28T11:46:08.169Z,102346.88
2023-01-28T11:48:34.529Z,102347.03
2023-01-28T11:51:19.383Z,102345.53
2023-01-28T11:53:48.550Z,102339.78
2023-01-28T11:56:20.172Z,102342.81
2023-01-28T11:58:56.496Z,102338.41
2023-01-28T12:01:24.867Z,102329.03
2023-01-28T12:03:59.517Z,102335.81
2023-01-28T12:06:28.710Z,102328.81
2023-01-28T12:09:07.962Z,102329.31
2023-01-28T12:12:04.858Z,102331.28
2023-01-28T12:14:42.275Z,102336.31
2023-01-28T12:17:20.771Z,102326.13
2023-01-28T12:19:58.956Z,102324.31
2023-01-28T12:22:31.344Z,102329.44
2023-01-28T12:25:07.117Z,102333.59
2023-01-28T12:27:41.558Z,102330.81
2023-01-28T12:30:18.547Z,102328.72
2023-01-28T12:33:07.157Z,102324.25
2023-01-28T12:35:43.483Z,102330.03
2023-01-28T12:38:12.909Z,102323.78
2023-01-28T12:40:47.337Z,102327.84
2023-01-28T12:43:25.288Z,102322.25
2023-01-28T12:45:58.226Z,102306.63
2023-01-28T12:48:27.428Z,102309.09
2023-01-28T12:50:55.199Z,102318.50
2023-01-28T12:53:40.308Z,102315.94
2023-01-28T12:56:08.639Z,102316.44
2023-01-28T12:58:37.086Z,102316.88
2023-01-28T13:01:04.840Z,102304.00
2023-01-28T13:03:35.629Z,102309.09
2023-01-28T13:06:02.694Z,102290.16
2023-01-28T13:08:29.143Z,102282.56
2023-01-28T13:10:56.739Z,102284.06
2023-01-28T13:13:30.987Z,102287.81
2023-01-28T13:15:57.312Z,102271.19
2023-01-28T13:18:30.451Z,102268.19
2023-01-28T13:20:56.795Z,102283.88
2023-01-28T13:23:25.778Z,102285.66
2023-01-28T13:25:53.025Z,102269.28
2023-01-28T13:28:37.390Z,102265.03
2023-01-28T13:31:05.050Z,102268.69
2023-01-28T13:33:32.448Z,102262.16
2023-01-28T13:35:58.784Z,102260.81
2023-01-28T13:38:25.106Z,102259.56
2023-01-28T13:40:55.079Z,102251.06
2023-01-28T13:43:28.793Z,102259.09
2023-01-28T13:45:56.127Z,102269.84
2023-01-28T13:48:32.661Z,102266.97
2023-01-28T13:50:58.989Z,102271.34
2023-01-28T13:53:30.475Z,102260.59
2023-01-28T13:55:57.418Z,102254.09
2023-01-28T13:58:42.554Z,102259.09
2023-01-28T14:01:27.728Z,102243.19
2023-01-28T14:03:57.491Z,102255.34
2023-01-28T14:06:50.176Z,102252.56
2023-01-28T14:09:20.506Z,102242.31
2023-01-28T14:12:07.653Z,102235.78
2023-01-28T14:14:43.515Z,102235.78
2023-01-28T14:17:13.007Z,102230.78
2023-01-28T14:19:39.330Z,102236.53
2023-01-28T14:22:09.061Z,102243.69
2023-01-28T14:24:36.730Z,102249.44
2023-01-28T14:27:06.171Z,102243.53
2023-01-28T14:29:51.264Z,102252.16
2023-01-28T14:32:28.576Z,102263.53
2023-01-28T14:34:55.438Z,102262.66
2023-01-28T14:37:22.845Z,102260.53
2023-01-28T14:39:51.077Z,102258.88
2023-01-28T14:42:21.226Z,102263.09
2023-01-28T14:44:48.457Z,102263.75
2023-01-28T14:47:20.695Z,102268.88
2023-01-28T14:49:46.948Z,102265.25
2023-01-28T14:52:20.205Z,102272.63
2023-01-28T14:54:48.132Z,102270.66
2023-01-28T14:57:16.540Z,102270.66
2023-01-28T14:59:43.990Z,102264.28
2023-01-28T15:02:12.432Z,102273.06
2023-01-28T15:04:38.783Z,102274.56
2023-01-28T15:07:18.644Z,102271.69
2023-01-28T15:09:44.958Z,102263.81
2023-01-28T15:12:11.305Z,102276.81
2023-01-28T15:14:37.918Z,102268.19
2023-01-28T15:17:04.735Z,102270.31
2023-01-28T15:19:32.066Z,102265.31
2023-01-28T15:22:05.815Z,102265.19
2023-01-28T15:24:32.391Z,102267.31
2023-01-28T15:26:58.786Z,102266.56
2023-01-28T15:29:35.221Z,102263.53
2023-01-28T15:32:01.574Z,102264.28
2023-01-28T15:34:30.944Z,102263.53
2023-01-28T15:36:57.681Z,102261.41
2023-01-28T15:39:24.443Z,102276.53
2023-01-28T15:42:01.151Z,102270.78
2023-01-28T15:44:31.343Z,102265.03
2023-01-28T15:47:01.257Z,102268.69
2023-01-28T15:49:28.448Z,102284.56
2023-01-28T15:51:54.796Z,102286.06
2023-01-28T15:54:21.177Z,102279.56
2023-01-28T15:56:47.527Z,102279.56
2023-01-28T15:59:17.707Z,102284.56
2023-01-28T16:01:44.039Z,102290.31
2023-01-28T16:04:23.634Z,102301.84
2023-01-28T16:06:50.030Z,102293.81
2023-01-28T16:09:20.854Z,102302.28
2023-01-28T16:11:47.196Z,102302.28
2023-01-28T16:14:20.791Z,102300.78
2023-01-28T16:16:47.180Z,102295.03
2023-01-28T16:19:18.630Z,102290.66
2023-01-28T16:21:45.005Z,102289.28
2023-01-28T16:24:22.854Z,102290.03
2023-01-28T16:26:59.268Z,102280.81
2023-01-28T16:29:25.633Z,102270.53
2023-01-28T16:31:52.023Z,102283.81
2023-01-28T16:34:18.401Z,102293.81
2023-01-28T16:36:44.737Z,102288.81
2023-01-28T16:39:11.071Z,102294.59
2023-01-28T16:41:38.749Z,102298.94
2023-01-28T16:44:05.902Z,102299.69
2023-01-28T16:46:33.453Z,102294.09
2023-01-28T16:48:59.816Z,102291.50
2023-01-28T16:51:26.133Z,102289.88
2023-01-28T16:53:52.437Z,102302.59
2023-01-28T16:56:35.716Z,102308.19
2023-01-28T16:59:06.132Z,102318.19
2023-01-28T17:01:32.473Z,102307.16
2023-01-28T17:03:58.940Z,102323.66
2023-01-28T17:06:25.296Z,102322.91
2023-01-28T17:08:51.645Z,102310.66
2023-01-28T17:11:17.989Z,102333.03
2023-01-28T17:13:44.351Z,102325.03
2023-01-28T17:16:10.718Z,102329.41
2023-01-28T17:18:37.048Z,102338.06
2023-01-28T17:21:04.091Z,102336.69
2023-01-28T17:23:30.441Z,102343.94
2023-01-28T17:25:56.759Z,102352.59
2023-01-28T17:28:23.100Z,102364.09
2023-01-28T17:30:49.491Z,102364.25
2023-01-28T17:33:15.866Z,102361.50
2023-01-28T17:35:45.270Z,102359.97
2023-01-28T17:38:11.581Z,102368.16
2023-01-28T17:40:37.970Z,102366.91
2023-01-28T17:43:04.301Z,102356.94
2023-01-28T17:45:31.223Z,102340.41
2023-01-28T17:47:57.620Z,102331.63
2023-01-28T17:50:23.974Z,102336.28
2023-01-28T17:52:56.426Z,102327.78
2023-01-28T17:55:23.150Z,102330.03
2023-01-28T17:57:49.637Z,102329.41
2023-01-28T18:00:16.163Z,102337.44
2023-01-28T18:02:42.485Z,102345.34
2023-01-28T18:05:08.929Z,102338.19
2023-01-28T18:07:35.261Z,102341.06
2023-01-28T18:10:01.597Z,102340.22
2023-01-28T18:12:27.926Z,102347.19
2023-01-28T18:14:54.256Z,102354.88
2023-01-28T18:17:22.746Z,102348.66
2023-01-28T18:19:49.096Z,102338.81
2023-01-28T18:22:15.429Z,102324.56
2023-01-28T18:24:41.746Z,102330.47
2023-01-28T18:27:08.106Z,102334.22
2023-01-28T18:29:34.419Z,102348.63
2023-01-28T18:32:00.857Z,102355.75
2023-01-28T18:34:27.765Z,102343.59
2023-01-28T18:36:54.092Z,102348.00
2023-01-28T18:39:20.549Z,102342.13
2023-01-28T18:41:46.856Z,102329.84
2023-01-28T18:44:13.423Z,102339.84
2023-01-28T18:46:39.850Z,102338.34
2023-01-28T18:49:06.178Z,102331.06
2023-01-28T18:51:32.497Z,102334.56
2023-01-28T18:53:58.939Z,102341.06
2023-01-28T18:56:25.433Z,102352.59
2023-01-28T18:59:15.073Z,102340.94
2023-01-28T19:01:42.570Z,102351.09
2023-01-28T19:04:08.998Z,102341.81
2023-01-28T19:06:35.306Z,102339.56
2023-01-28T19:09:05.859Z,102341.22
2023-01-28T19:11:32.179Z,102342.56
2023-01-28T19:13:58.507Z,102331.06
2023-01-28T19:16:24.878Z,102328.31
2023-01-28T19:18:54.681Z,102333.34
2023-01-28T19:21:21.349Z,102344.25
2023-01-28T19:23:50.164Z,102345.75
2023-01-28T19:26:20.931Z,102333.47
2023-01-28T19:28:48.170Z,102331.34
2023-01-28T19:31:14.541Z,102331.34
2023-01-28T19:33:41.297Z,102328.47
2023-01-28T19:36:07.688Z,102329.84
2023-01-28T19:38:34.019Z,102321.81
2023-01-28T19:41:06.845Z,102322.44
2023-01-28T19:43:33.944Z,102322.31
2023-01-28T19:46:00.967Z,102318.66
2023-01-28T19:48:27.343Z,102320.78
2023-01-28T19:50:53.654Z,102323.06
2023-01-28T19:53:20.031Z,102318.06
2023-01-28T19:55:46.362Z,102329.56
2023-01-28T19:58:12.704Z,102336.81
2023-01-28T20:00:39.031Z,102338.34
2023-01-28T20:03:07.802Z,102348.31
2023-01-28T20:05:34.541Z,102357.09
2023-01-28T20:08:00.869Z,102362.84
2023-01-28T20:10:27.193Z,102361.38
2023-01-28T20:12:53.539Z,102352.88
2023-01-28T20:15:19.857Z,102364.38
2023-01-28T20:17:46.611Z,102358.63
2023-01-28T20:20:13.222Z,102357.25
2023-01-28T20:22:39.594Z,102353.03
2023-01-28T20:25:06.288Z,102353.03
2023-01-28T20:27:32.669Z,102351.34
2023-01-28T20:29:59.012Z,102351.63
2023-01-28T20:32:25.488Z,102334.28
2023-01-28T20:34:51.898Z,102332.00
2023-01-28T20:37:18.387Z,102338.56
2023-01-28T20:39:44.788Z,102332.25
2023-01-28T20:42:13.157Z,102332.50
2023-01-28T20:44:39.785Z,102327.69
2023-01-28T20:47:06.168Z,102329.34
2023-01-28T20:49:32.744Z,102327.94
2023-01-28T20:51:59.108Z,102329.06
2023-01-28T20:54:25.538Z,102330.72
2023-01-28T20:56:52.285Z,102333.25
2023-01-28T20:59:19.275Z,102329.00
2023-01-28T21:01:45.695Z,102326.13
2023-01-28T21:04:12.063Z,102332.00
2023-01-28T21:06:38.408Z,102332.78
2023-01-28T21:09:04.751Z,102330.66
2023-01-28T21:11:31.154Z,102325.03
2023-01-28T21:13:57.489Z,102335.03
2023-01-28T21:16:23.884Z,102325.78
2023-01-28T21:18:50.411Z,102327.78
2023-01-28T21:21:17.806Z,102316.28
2023-01-28T21:23:44.227Z,102313.41
2023-01-28T21:26:10.570Z,102309.00
2023-01-28T21:28:36.911Z,102310.53
2023-01-28T21:31:07.112Z,102302.50
2023-01-28T21:33:33.527Z,102309.78
2023-01-28T21:35:59.872Z,102306.13
2023-01-28T21:38:26.191Z,102306.13
2023-01-28T21:40:52.647Z,102307.50
2023-01-28T21:43:19.156Z,102311.72
2023-01-28T21:45:47.698Z,102312.50
2023-01-28T21:48:14.035Z,102313.25
2023-01-28T21:51:00.331Z,102313.84
2023-01-28T21:53:26.670Z,102322.47
2023-01-28T21:55:52.994Z,102314.50
2023-01-28T21:58:38.114Z,102302.97
2023-01-28T22:01:10.369Z,102302.84
2023-01-28T22:03:36.685Z,102299.97
2023-01-28T22:06:02.996Z,102297.69
2023-01-28T22:08:29.323Z,102289.66
2023-01-28T22:10:56.635Z,102288.91
2023-01-28T22:13:22.970Z,102293.91
2023-01-28T22:15:49.312Z,102286.63
2023-01-28T22:18:15.648Z,102289.38
2023-01-28T22:20:41.998Z,102286.50
2023-01-28T22:23:08.334Z,102286.38
2023-01-28T22:25:35.125Z,102291.22
2023-01-28T22:28:01.453Z,102285.47
2023-01-28T22:30:27.770Z,102276.09
2023-01-28T22:32:54.095Z,102274.59
2023-01-28T22:35:20.417Z,102277.31
2023-01-28T22:37:46.770Z,102279.44
2023-01-28T22:40:13.262Z,102281.53
2023-01-28T22:42:39.769Z,102280.03
2023-01-28T22:45:06.528Z,102281.28
2023-01-28T22:47:32.850Z,102275.53
2023-01-28T22:49:59.213Z,102285.50
2023-01-28T22:52:25.554Z,102279.59
2023-01-28T22:54:52.021Z,102263.72
2023-01-28T22:57:18.352Z,102265.22
2023-01-28T22:59:59.238Z,102263.72
2023-01-28T23:02:26.303Z,102273.72
2023-01-28T23:04:52.686Z,102272.22
2023-01-28T23:07:19.054Z,102280.84
2023-01-28T23:09:45.380Z,102259.22
2023-01-28T23:12:11.747Z,102263.44
2023-01-28T23:14:56.575Z,102256.19
2023-01-28T23:17:41.396Z,102253.19
2023-01-28T23:20:27.882Z,102266.19
2023-01-28T23:23:12.707Z,102252.44
2023-01-28T23:25:39.026Z,102245.91
2023-01-28T23:28:05.337Z,102242.44
2023-01-28T23:30:31.694Z,102246.19
2023-01-28T23:32:58.090Z,102238.47
2023-01-28T23:35:27.204Z,102234.22
2023-01-28T23:37:54.142Z,102236.47
2023-01-28T23:40:23.817Z,102235.28
2023-01-28T23:42:50.516Z,102236.03
2023-01-28T23:45:17.239Z,102239.78
2023-01-28T23:47:43.591Z,102228.28
2023-01-28T23:50:10.176Z,102221.16
2023-01-28T23:52:36.564Z,102218.28
2023-01-28T23:55:02.923Z,102221.16
2023-01-28T23:57:29.249Z,102209.66
2023-01-28T23:59:55.666Z,102203.16
